| time (UTC) | temp C | wind direction | speed KPH | gust KPH | rain 1hr cm | rain 24hr cm | rain mn cm | humidity % | barometer mb |
| 20260510175951 | 26 | 252 | 6.4 | 9.7 | 0.00 | 0.00 | 0.00 | 46 | 1013.6 |
| 20260510174948 | 26 | 205 | 8.0 | 11.3 | 0.00 | 0.00 | 0.00 | 45 | 1013.6 |
| 20260510173943 | 25 | 244 | 4.8 | 4.8 | 0.00 | 0.00 | 0.00 | 49 | 1013.9 |
| 20260510172941 | 26 | 139 | 3.2 | 4.8 | 0.00 | 0.00 | 0.00 | 48 | 1013.9 |
| 20260510171939 | 25 | 230 | 6.4 | 8.0 | 0.00 | 0.00 | 0.00 | 50 | 1013.9 |
| 20260510170939 | 25 | 260 | 9.7 | 12.9 | 0.00 | 0.00 | 0.00 | 48 | 1013.9 |
| 20260510165937 | 25 | 172 | 8.0 | 9.7 | 0.00 | 0.00 | 0.00 | 51 | 1014.2 |
| 20260510164936 | 25 | 236 | 8.0 | 11.3 | 0.00 | 0.00 | 0.00 | 49 | 1014.2 |
| 20260510163934 | 25 | 290 | 3.2 | 3.2 | 0.00 | 0.00 | 0.00 | 50 | 1014.2 |
| 20260510162931 | 24 | 307 | 3.2 | 3.2 | 0.00 | 0.00 | 0.00 | 51 | 1014.6 |
| 20260510161930 | 24 | 287 | 8.0 | 11.3 | 0.00 | 0.00 | 0.00 | 51 | 1014.6 |
| 20260510160929 | 24 | 281 | 3.2 | 3.2 | 0.00 | 0.00 | 0.00 | 52 | 1014.2 |
| 20260510155924 | 24 | 306 | 4.8 | 4.8 | 0.00 | 0.00 | 0.00 | 50 | 1014.6 |
| 20260510154924 | 24 | 290 | 1.6 | 3.2 | 0.00 | 0.00 | 0.00 | 54 | 1014.6 |
| 20260510153919 | 23 | 308 | 9.7 | 14.5 | 0.00 | 0.00 | 0.00 | 53 | 1014.6 |
| 20260510152919 | 23 | 279 | 9.7 | 11.3 | 0.00 | 0.00 | 0.00 | 52 | 1014.9 |
| 20260510151918 | 23 | 289 | 9.7 | 12.9 | 0.00 | 0.00 | 0.00 | 55 | 1014.9 |
| 20260510150918 | 23 | 273 | 8.0 | 9.7 | 0.00 | 0.00 | 0.00 | 56 | 1014.9 |
| 20260510145916 | 23 | 238 | 6.4 | 9.7 | 0.00 | 0.00 | 0.00 | 55 | 1014.9 |
| 20260510144915 | 22 | 252 | 8.0 | 11.3 | 0.00 | 0.00 | 0.00 | 57 | 1014.9 |
| 20260510143912 | 22 | 248 | 11.3 | 12.9 | 0.00 | 0.00 | 0.00 | 56 | 1014.6 |
| 20260510142912 | 22 | 254 | 4.8 | 8.0 | 0.00 | 0.00 | 0.00 | 57 | 1014.9 |
| 20260510141911 | 22 | 256 | 8.0 | 11.3 | 0.00 | 0.00 | 0.00 | 59 | 1014.9 |
| 20260510140911 | 22 | 281 | 11.3 | 14.5 | 0.00 | 0.00 | 0.00 | 60 | 1014.9 |
| 20260510135906 | 21 | 284 | 1.6 | 1.6 | 0.00 | 0.00 | 0.00 | 62 | 1014.9 |
| 20260510134906 | 21 | 291 | 3.2 | 4.8 | 0.00 | 0.00 | 0.00 | 59 | 1014.6 |
| 20260510133905 | 21 | 280 | 6.4 | 8.0 | 0.00 | 0.00 | 0.00 | 59 | 1014.9 |
| 20260510132902 | 20 | 286 | 9.7 | 12.9 | 0.00 | 0.00 | 0.00 | 60 | 1014.9 |
| 20260510131857 | 20 | 269 | 8.0 | 9.7 | 0.00 | 0.00 | 0.00 | 61 | 1014.9 |
| 20260510130857 | 20 | 280 | 8.0 | 11.3 | 0.00 | 0.00 | 0.00 | 62 | 1014.6 |
| 20260510125857 | 19 | 281 | 4.8 | 4.8 | 0.00 | 0.00 | 0.00 | 64 | 1014.6 |
| 20260510124855 | 19 | 250 | 8.0 | 9.7 | 0.00 | 0.00 | 0.00 | 66 | 1014.6 |
| 20260510123854 | 18 | 298 | 4.8 | 4.8 | 0.00 | 0.00 | 0.00 | 66 | 1014.6 |
| 20260510122852 | 18 | 300 | 8.0 | 11.3 | 0.00 | 0.00 | 0.00 | 68 | 1014.2 |
| 20260510121850 | 17 | 285 | 6.4 | 9.7 | 0.00 | 0.00 | 0.00 | 70 | 1014.2 |
| 20260510120850 | 17 | 239 | 8.0 | 11.3 | 0.00 | 0.00 | 0.00 | 71 | 1014.6 |
| 20260510115848 | 17 | 262 | 4.8 | 4.8 | 0.00 | 0.00 | 0.00 | 73 | 1014.2 |
| 20260510114847 | 16 | 272 | 4.8 | 8.0 | 0.00 | 0.00 | 0.00 | 75 | 1013.9 |
| 20260510113844 | 15 | 278 | 4.8 | 4.8 | 0.00 | 0.00 | 0.00 | 77 | 1014.2 |
| 20260510112844 | 15 | 280 | 3.2 | 4.8 | 0.00 | 0.00 | 0.00 | 80 | 1013.6 |
| 20260510111843 | 14 | 280 | 3.2 | 3.2 | 0.00 | 0.00 | 0.00 | 82 | 1013.6 |
| 20260510110839 | 12 | 310 | 3.2 | 3.2 | 0.00 | 0.00 | 0.00 | 88 | 1013.6 |
| 20260510105839 | 11 | 312 | 0.0 | 1.6 | 0.00 | 0.00 | 0.00 | 93 | 1013.2 |
| 20260510104835 | 10 | 312 | 1.6 | 1.6 | 0.00 | 0.00 | 0.00 | 95 | 1013.2 |
| 20260510103834 | 10 | 313 | 0.0 | 0.0 | 0.00 | 0.00 | 0.00 | 95 | 1012.8 |
| 20260510102832 | 10 | 313 | 0.0 | 0.0 | 0.00 | 0.00 | 0.00 | 95 | 1012.8 |
| 20260510101832 | 10 | 313 | 0.0 | 0.0 | 0.00 | 0.00 | 0.00 | 95 | 1012.8 |
| 20260510100832 | 10 | 314 | 0.0 | 0.0 | 0.00 | 0.00 | 0.00 | 95 | 1012.8 |
| 20260510095831 | 10 | 314 | 0.0 | 0.0 | 0.00 | 0.00 | 0.00 | 94 | 1012.4 |
| 20260510094826 | 10 | 314 | 1.6 | 1.6 | 0.00 | 0.00 | 0.00 | 94 | 1012.8 |
| 20260510093824 | 10 | 314 | 1.6 | 1.6 | 0.00 | 0.00 | 0.00 | 93 | 1012.4 |
| 20260510092822 | 10 | 314 | 3.2 | 3.2 | 0.00 | 0.00 | 0.00 | 93 | 1012.4 |
| 20260510091820 | 10 | 314 | 3.2 | 3.2 | 0.00 | 0.00 | 0.00 | 94 | 1012.4 |
| 20260510090819 | 10 | 314 | 3.2 | 3.2 | 0.00 | 0.00 | 0.00 | 94 | 1012.4 |
| 20260510085818 | 10 | 314 | 3.2 | 3.2 | 0.00 | 0.00 | 0.00 | 95 | 1012.1 |
| 20260510084814 | 10 | 314 | 0.0 | 0.0 | 0.00 | 0.00 | 0.00 | 94 | 1012.1 |
| 20260510083814 | 10 | 313 | 0.0 | 0.0 | 0.00 | 0.00 | 0.00 | 94 | 1012.4 |
| 20260510082812 | 10 | 313 | 0.0 | 0.0 | 0.00 | 0.00 | 0.00 | 93 | 1012.4 |
| 20260510081808 | 10 | 313 | 0.0 | 0.0 | 0.00 | 0.00 | 0.00 | 93 | 1012.1 |
| 20260510080806 | 10 | 313 | 0.0 | 0.0 | 0.00 | 0.00 | 0.00 | 92 | 1011.8 |
| 20260510075804 | 10 | 313 | 1.6 | 1.6 | 0.00 | 0.00 | 0.00 | 93 | 1011.4 |
| 20260510074804 | 10 | 313 | 1.6 | 1.6 | 0.00 | 0.00 | 0.00 | 94 | 1011.8 |
| 20260510073803 | 10 | 313 | 0.0 | 0.0 | 0.00 | 0.00 | 0.00 | 94 | 1011.8 |
| 20260510072801 | 10 | 313 | 0.0 | 0.0 | 0.00 | 0.00 | 0.00 | 94 | 1011.8 |
| 20260510071800 | 10 | 313 | 1.6 | 1.6 | 0.00 | 0.00 | 0.00 | 94 | 1011.8 |
| 20260510070756 | 10 | 313 | 1.6 | 1.6 | 0.00 | 0.00 | 0.00 | 93 | 1011.8 |
| 20260510065752 | 9 | 312 | 0.0 | 0.0 | 0.00 | 0.00 | 0.00 | 92 | 1011.4 |
| 20260510064751 | 10 | 312 | 0.0 | 0.0 | 0.00 | 0.00 | 0.00 | 91 | 1011.8 |
| 20260510063751 | 10 | 312 | 1.6 | 3.2 | 0.00 | 0.00 | 0.00 | 93 | 1011.4 |
| 20260510062750 | 10 | 312 | 0.0 | 0.0 | 0.00 | 0.00 | 0.00 | 92 | 1011.8 |
| 20260510061747 | 10 | 312 | 1.6 | 1.6 | 0.00 | 0.00 | 0.00 | 91 | 1011.8 |
| 20260510060746 | 10 | 312 | 0.0 | 0.0 | 0.00 | 0.00 | 0.00 | 89 | 1011.8 |
| 20260510055746 | 10 | 312 | 0.0 | 0.0 | 0.00 | 0.00 | 0.00 | 88 | 1011.8 |
| 20260510054743 | 11 | 311 | 0.0 | 0.0 | 0.00 | 0.00 | 0.00 | 86 | 1011.8 |
| 20260510053739 | 11 | 311 | 0.0 | 0.0 | 0.00 | 0.00 | 0.00 | 85 | 1011.8 |
| 20260510052737 | 11 | 311 | 1.6 | 3.2 | 0.00 | 0.00 | 0.00 | 85 | 1011.8 |
| 20260510051735 | 12 | 311 | 1.6 | 1.6 | 0.00 | 0.00 | 0.00 | 82 | 1011.4 |
| 20260510050735 | 12 | 311 | 0.0 | 0.0 | 0.00 | 0.00 | 0.00 | 81 | 1011.8 |
| 20260510045735 | 12 | 311 | 0.0 | 0.0 | 0.00 | 0.00 | 0.00 | 80 | 1011.8 |
| 20260510044734 | 13 | 311 | 0.0 | 0.0 | 0.00 | 0.00 | 0.00 | 77 | 1011.8 |
| 20260510043733 | 14 | 311 | 0.0 | 0.0 | 0.00 | 0.00 | 0.00 | 73 | 1011.8 |
| 20260510042734 | 15 | 309 | 1.6 | 1.6 | 0.00 | 0.00 | 0.00 | 70 | 1011.8 |
| 20260510041732 | 16 | 296 | 1.6 | 1.6 | 0.00 | 0.00 | 0.00 | 67 | 1011.4 |
| 20260510040733 | 17 | 255 | 3.2 | 3.2 | 0.00 | 0.00 | 0.00 | 62 | 1011.1 |
| 20260510035730 | 17 | 284 | 6.4 | 8.0 | 0.00 | 0.00 | 0.00 | 61 | 1011.1 |
| 20260510034728 | 18 | 267 | 6.4 | 8.0 | 0.00 | 0.00 | 0.00 | 59 | 1011.4 |
| 20260510033728 | 17 | 281 | 4.8 | 4.8 | 0.00 | 0.00 | 0.00 | 62 | 1011.4 |
| 20260510032728 | 15 | 279 | 4.8 | 4.8 | 0.00 | 0.00 | 0.00 | 65 | 1011.1 |
| 20260510031725 | 14 | 297 | 1.6 | 1.6 | 0.00 | 0.00 | 0.00 | 74 | 1011.1 |
| 20260510030720 | 14 | 270 | 1.6 | 1.6 | 0.00 | 0.00 | 0.00 | 72 | 1011.1 |
| 20260510025716 | 15 | 274 | 0.0 | 0.0 | 0.00 | 0.00 | 0.00 | 71 | 1011.1 |
| 20260510024716 | 16 | 280 | 0.0 | 1.6 | 0.00 | 0.00 | 0.00 | 67 | 1011.1 |
| 20260510023714 | 17 | 283 | 4.8 | 4.8 | 0.00 | 0.00 | 0.00 | 61 | 1011.1 |
| 20260510022713 | 16 | 308 | 1.6 | 1.6 | 0.00 | 0.00 | 0.00 | 65 | 1010.8 |
| 20260510021708 | 14 | 313 | 8.0 | 9.7 | 0.00 | 0.00 | 0.00 | 65 | 1011.1 |
| 20260510020707 | 13 | 306 | 3.2 | 3.2 | 0.00 | 0.00 | 0.00 | 78 | 1010.8 |
| 20260510015704 | 13 | 306 | 3.2 | 3.2 | 0.00 | 0.00 | 0.00 | 78 | 1010.8 |
| 20260510014701 | 13 | 306 | 0.0 | 0.0 | 0.00 | 0.00 | 0.00 | 77 | 1010.4 |
| 20260510013659 | 13 | 306 | 0.0 | 0.0 | 0.00 | 0.00 | 0.00 | 78 | 1010.1 |
| 20260510012655 | 14 | 306 | 1.6 | 3.2 | 0.00 | 0.00 | 0.00 | 77 | 1010.1 |
| 20260510011652 | 15 | 306 | 0.0 | 0.0 | 0.00 | 0.00 | 0.00 | 74 | 1010.1 |
| 20260510010650 | 15 | 304 | 1.6 | 1.6 | 0.00 | 0.00 | 0.00 | 72 | 1009.6 |
| 20260510005649 | 15 | 303 | 0.0 | 0.0 | 0.00 | 0.00 | 0.00 | 68 | 1009.3 |
| 20260510004644 | 15 | 303 | 1.6 | 1.6 | 0.00 | 0.00 | 0.00 | 71 | 1009.3 |
| 20260510003639 | 15 | 302 | 3.2 | 3.2 | 0.00 | 0.00 | 0.00 | 75 | 1009.3 |
| 20260510002635 | 16 | 303 | 3.2 | 3.2 | 0.00 | 0.00 | 0.00 | 74 | 1009.0 |
| 20260510001634 | 17 | 306 | 3.2 | 3.2 | 0.00 | 0.00 | 0.00 | 68 | 1009.0 |
| 20260510000633 | 20 | 296 | 3.2 | 3.2 | 0.00 | 0.00 | 0.00 | 55 | 1009.0 |
| 20260509235632 | 21 | 281 | 1.6 | 3.2 | 0.00 | 0.00 | 0.00 | 52 | 1008.6 |
| 20260509234631 | 21 | 293 | 0.0 | 1.6 | 0.00 | 0.00 | 0.00 | 51 | 1008.3 |
| 20260509233626 | 22 | 303 | 4.8 | 4.8 | 0.00 | 0.00 | 0.00 | 48 | 1008.3 |
| 20260509232625 | 22 | 286 | 3.2 | 3.2 | 0.00 | 0.00 | 0.00 | 49 | 1008.3 |
| 20260509231625 | 23 | 307 | 4.8 | 4.8 | 0.00 | 0.00 | 0.00 | 49 | 1008.3 |
| 20260509230625 | 23 | 293 | 3.2 | 3.2 | 0.00 | 0.00 | 0.00 | 49 | 1008.3 |
| 20260509225623 | 23 | 274 | 4.8 | 4.8 | 0.00 | 0.00 | 0.00 | 47 | 1007.9 |
| 20260509224620 | 23 | 282 | 1.6 | 1.6 | 0.00 | 0.00 | 0.00 | 49 | 1007.9 |
| 20260509223620 | 23 | 286 | 1.6 | 1.6 | 0.00 | 0.00 | 0.00 | 50 | 1008.3 |
| 20260509222619 | 23 | 290 | 4.8 | 4.8 | 0.00 | 0.00 | 0.00 | 47 | 1008.3 |
| 20260509221617 | 23 | 274 | 6.4 | 8.0 | 0.00 | 0.00 | 0.00 | 49 | 1008.3 |
| 20260509220615 | 23 | 292 | 3.2 | 3.2 | 0.00 | 0.00 | 0.00 | 55 | 1008.3 |
| 20260509215614 | 22 | 278 | 0.0 | 0.0 | 0.00 | 0.00 | 0.00 | 58 | 1007.9 |
| 20260509214614 | 22 | 255 | 3.2 | 3.2 | 0.00 | 0.00 | 0.00 | 56 | 1007.9 |
| 20260509213612 | 22 | 274 | 1.6 | 3.2 | 0.00 | 0.00 | 0.00 | 55 | 1007.9 |
| 20260509212612 | 22 | 279 | 0.0 | 1.6 | 0.00 | 0.00 | 0.00 | 55 | 1007.9 |
| 20260509211611 | 22 | 273 | 4.8 | 4.8 | 0.00 | 0.00 | 0.00 | 55 | 1007.9 |
| 20260509210610 | 22 | 258 | 3.2 | 4.8 | 0.00 | 0.00 | 0.00 | 55 | 1007.9 |
| 20260509205608 | 23 | 274 | 0.0 | 1.6 | 0.00 | 0.00 | 0.00 | 54 | 1007.6 |
| 20260509204605 | 22 | 281 | 1.6 | 1.6 | 0.00 | 0.00 | 0.00 | 56 | 1007.9 |
| 20260509203604 | 22 | 253 | 4.8 | 8.0 | 0.00 | 0.00 | 0.00 | 55 | 1007.6 |
| 20260509202602 | 22 | 291 | 0.0 | 0.0 | 0.00 | 0.00 | 0.00 | 53 | 1007.9 |
| 20260509201558 | 22 | 267 | 3.2 | 4.8 | 0.00 | 0.00 | 0.00 | 57 | 1007.6 |
| 20260509200556 | 22 | 268 | 1.6 | 1.6 | 0.00 | 0.00 | 0.00 | 58 | 1007.6 |
| 20260509195554 | 23 | 316 | 4.8 | 4.8 | 0.00 | 0.00 | 0.00 | 54 | 1007.9 |
| 20260509194554 | 23 | 276 | 3.2 | 3.2 | 0.00 | 0.00 | 0.00 | 54 | 1007.6 |
| 20260509193554 | 23 | 281 | 1.6 | 1.6 | 0.00 | 0.00 | 0.00 | 54 | 1007.9 |
| 20260509192553 | 23 | 262 | 4.8 | 4.8 | 0.00 | 0.00 | 0.00 | 54 | 1007.9 |
| 20260509191548 | 23 | 324 | 3.2 | 3.2 | 0.00 | 0.00 | 0.00 | 55 | 1008.3 |
| 20260509190547 | 23 | 262 | 8.0 | 11.3 | 0.00 | 0.00 | 0.00 | 53 | 1008.3 |
| 20260509185542 | 21 | 268 | 1.6 | 1.6 | 0.00 | 0.00 | 0.00 | 60 | 1008.3 |
| 20260509184537 | 22 | 67 | 4.8 | 4.8 | 0.00 | 0.00 | 0.00 | 59 | 1008.3 |
| 20260509183534 | 21 | 331 | 3.2 | 4.8 | 0.00 | 0.00 | 0.00 | 61 | 1008.6 |
| 20260509182532 | 22 | 256 | 4.8 | 9.7 | 0.00 | 0.00 | 0.00 | 59 | 1009.0 |
| 20260509181528 | 22 | 72 | 8.0 | 9.7 | 0.00 | 0.00 | 0.00 | 59 | 1009.0 |
| 20260509180526 | 21 | 277 | 4.8 | 8.0 | 0.00 | 0.00 | 0.00 | 63 | 1009.3 |